createdAt,value
2022-09-15T00:01:21.762Z,4.55
2022-09-15T00:03:52.057Z,4.35
2022-09-15T00:06:23.429Z,4.35
2022-09-15T00:08:57.028Z,3.98
2022-09-15T00:11:29.691Z,3.85
2022-09-15T00:14:01.446Z,4.28
2022-09-15T00:16:33.050Z,4.95
2022-09-15T00:19:02.756Z,3.80
2022-09-15T00:21:33.709Z,4.08
2022-09-15T00:24:07.469Z,3.80
2022-09-15T00:26:37.248Z,4.25
2022-09-15T00:29:06.338Z,4.00
2022-09-15T00:34:47.123Z,4.30
2022-09-15T00:37:29.427Z,4.10
2022-09-15T00:40:02.379Z,4.10
2022-09-15T00:42:33.021Z,4.22
2022-09-15T00:45:11.856Z,4.35
2022-09-15T00:47:46.574Z,3.65
2022-09-15T00:50:18.408Z,4.25
2022-09-15T00:52:54.616Z,4.25
2022-09-15T00:55:39.261Z,3.77
2022-09-15T00:58:34.764Z,4.25
2022-09-15T01:01:11.403Z,4.15
2022-09-15T01:03:41.958Z,4.58
2022-09-15T01:06:21.585Z,4.05
2022-09-15T01:09:15.249Z,4.05
2022-09-15T01:11:49.084Z,4.40
2022-09-15T01:17:47.173Z,4.20
2022-09-15T01:20:44.948Z,4.35
2022-09-15T01:23:36.552Z,4.42
2022-09-15T01:26:38.385Z,4.50
2022-09-15T01:29:46.443Z,5.08
2022-09-15T01:32:41.934Z,5.00
2022-09-15T01:35:16.345Z,4.83
2022-09-15T01:37:56.344Z,4.47
2022-09-15T01:40:44.555Z,5.00
2022-09-15T01:43:18.489Z,4.50
2022-09-15T01:45:50.494Z,4.87
2022-09-15T01:48:27.755Z,4.87
2022-09-15T01:51:00.990Z,5.17
2022-09-15T01:53:41.007Z,4.58
2022-09-15T01:56:14.651Z,5.37
2022-09-15T01:58:46.226Z,5.45
2022-09-15T02:01:29.680Z,5.12
2022-09-15T02:04:01.606Z,4.80
2022-09-15T02:06:50.228Z,4.78
2022-09-15T02:09:41.477Z,5.08
2022-09-15T02:12:32.998Z,4.55
2022-09-15T02:15:12.499Z,5.15
2022-09-15T02:17:47.258Z,5.10
2022-09-15T02:20:48.570Z,5.33
2022-09-15T02:23:31.949Z,4.72
2022-09-15T02:26:06.475Z,5.12
2022-09-15T02:28:38.627Z,5.12
2022-09-15T02:31:10.466Z,4.62
2022-09-15T02:33:43.866Z,4.90
2022-09-15T02:36:19.004Z,5.05
2022-09-15T02:38:54.922Z,4.67
2022-09-15T02:41:29.717Z,5.50
2022-09-15T02:44:02.392Z,4.80
2022-09-15T02:46:40.437Z,4.67
2022-09-15T02:49:09.681Z,5.10
2022-09-15T02:51:50.992Z,5.58
2022-09-15T02:54:17.107Z,4.95
2022-09-15T02:56:51.753Z,5.30
2022-09-15T02:59:32.112Z,4.85
2022-09-15T03:02:06.807Z,4.83
2022-09-15T03:04:37.122Z,4.47
2022-09-15T03:07:20.207Z,4.47
2022-09-15T03:12:46.789Z,4.33
2022-09-15T03:15:24.345Z,4.30
2022-09-15T03:17:55.420Z,4.15
2022-09-15T03:20:32.601Z,4.25
2022-09-15T03:23:01.108Z,4.30
2022-09-15T03:25:31.140Z,4.17
2022-09-15T03:27:59.735Z,4.30
2022-09-15T03:30:30.062Z,4.60
2022-09-15T03:32:58.799Z,4.17
2022-09-15T03:35:27.558Z,6.08
2022-09-15T03:37:56.284Z,5.10
2022-09-15T03:40:36.494Z,4.97
2022-09-15T03:43:05.527Z,5.00
2022-09-15T03:45:34.711Z,4.50
2022-09-15T03:48:03.513Z,5.08
2022-09-15T03:50:32.769Z,4.87
2022-09-15T03:53:02.446Z,5.03
2022-09-15T03:55:33.346Z,5.20
2022-09-15T03:58:02.057Z,5.90
2022-09-15T04:00:31.948Z,5.10
2022-09-15T04:03:01.905Z,5.70
2022-09-15T04:05:30.689Z,4.58
2022-09-15T04:07:59.490Z,5.60
2022-09-15T04:10:28.415Z,4.67
2022-09-15T04:13:02.127Z,5.22
2022-09-15T04:15:33.898Z,5.22
2022-09-15T04:18:03.944Z,5.55
2022-09-15T04:20:37.580Z,6.22
2022-09-15T04:23:12.275Z,6.35
2022-09-15T04:25:45.234Z,5.58
2022-09-15T04:28:32.312Z,5.92
2022-09-15T04:31:16.375Z,5.67
2022-09-15T04:33:55.020Z,5.30
2022-09-15T04:36:30.396Z,5.45
2022-09-15T04:39:02.721Z,6.05
2022-09-15T04:41:36.655Z,5.67
2022-09-15T04:44:08.281Z,6.33
2022-09-15T04:46:37.126Z,6.80
2022-09-15T04:49:07.301Z,7.12
2022-09-15T04:51:35.968Z,6.75
2022-09-15T04:54:04.722Z,7.17
2022-09-15T04:56:34.866Z,6.30
2022-09-15T04:59:06.352Z,6.90
2022-09-15T05:01:38.895Z,6.75
2022-09-15T05:04:07.526Z,6.97
2022-09-15T05:06:38.594Z,7.00
2022-09-15T05:09:12.758Z,7.42
2022-09-15T05:11:41.823Z,7.62
2022-09-15T05:14:13.605Z,7.60
2022-09-15T05:16:42.328Z,8.25
2022-09-15T05:19:14.597Z,7.78
2022-09-15T05:21:46.341Z,7.75
2022-09-15T05:24:15.114Z,6.62
2022-09-15T05:26:44.672Z,6.00
2022-09-15T05:29:14.777Z,7.42
2022-09-15T05:31:43.545Z,7.12
2022-09-15T05:34:17.214Z,7.40
2022-09-15T05:36:50.300Z,7.30
2022-09-15T05:39:18.934Z,7.28
2022-09-15T05:41:47.534Z,7.17
2022-09-15T05:44:18.850Z,6.75
2022-09-15T05:46:47.649Z,6.95
2022-09-15T05:49:16.355Z,7.55
2022-09-15T05:51:45.090Z,7.33
2022-09-15T05:54:18.291Z,7.17
2022-09-15T05:57:22.168Z,5.90
2022-09-15T05:59:25.426Z,6.15
2022-09-15T06:02:05.743Z,6.78
2022-09-15T06:04:37.819Z,5.35
2022-09-15T06:07:06.948Z,6.17
2022-09-15T06:09:42.671Z,5.22
2022-09-15T06:12:12.966Z,5.28
2022-09-15T06:14:43.703Z,5.75
2022-09-15T06:17:16.876Z,5.55
2022-09-15T06:19:51.002Z,5.70
2022-09-15T06:22:19.755Z,5.95
2022-09-15T06:24:53.880Z,7.30
2022-09-15T06:27:31.701Z,8.85
2022-09-15T06:30:23.337Z,7.83
2022-09-15T06:32:58.256Z,9.53
2022-09-15T06:35:32.864Z,9.80
2022-09-15T06:38:08.035Z,9.25
2022-09-15T06:40:37.261Z,7.28
2022-09-15T06:43:08.684Z,6.35
2022-09-15T06:45:37.774Z,6.83
2022-09-15T06:48:24.017Z,10.18
2022-09-15T06:50:41.232Z,7.20
2022-09-15T06:53:10.449Z,7.45
2022-09-15T06:55:39.287Z,6.92
2022-09-15T06:58:07.874Z,7.20
2022-09-15T07:00:36.451Z,5.90
2022-09-15T07:03:05.377Z,6.60
2022-09-15T07:05:36.114Z,6.60
2022-09-15T07:08:12.738Z,7.42
2022-09-15T07:11:03.503Z,7.85
2022-09-15T07:13:55.580Z,7.55
2022-09-15T07:16:39.587Z,7.12
2022-09-15T07:19:24.112Z,7.35
2022-09-15T07:21:59.493Z,13.20
2022-09-15T07:27:55.916Z,7.83
2022-09-15T07:30:29.566Z,7.60
2022-09-15T07:32:58.555Z,7.55
2022-09-15T07:35:35.428Z,7.78
2022-09-15T07:38:00.647Z,6.72
2022-09-15T07:40:37.980Z,7.70
2022-09-15T07:43:19.122Z,6.40
2022-09-15T07:46:03.633Z,6.22
2022-09-15T07:48:27.789Z,6.10
2022-09-15T07:51:00.122Z,5.92
2022-09-15T07:53:52.387Z,6.15
2022-09-15T07:56:22.392Z,6.70
2022-09-15T07:59:08.515Z,7.55
2022-09-15T08:33:45.473Z,4.65
2022-09-15T08:36:17.635Z,4.92
2022-09-15T08:38:50.539Z,4.62
2022-09-15T08:41:30.797Z,4.30
2022-09-15T08:44:22.640Z,4.37
2022-09-15T08:50:42.192Z,4.10
2022-09-15T08:53:22.579Z,4.53
2022-09-15T08:56:00.385Z,4.40
2022-09-15T08:58:32.174Z,3.72
2022-09-15T09:01:18.970Z,4.20
2022-09-15T09:04:08.027Z,4.37
2022-09-15T09:06:51.173Z,4.00
2022-09-15T09:09:25.921Z,4.12
2022-09-15T09:19:32.978Z,8.88
2022-09-15T09:28:22.171Z,4.40
2022-09-15T09:30:58.047Z,4.25
2022-09-15T09:33:30.401Z,3.95
2022-09-15T09:36:04.438Z,3.92
2022-09-15T09:38:42.022Z,3.72
2022-09-15T10:12:56.851Z,3.20
2022-09-15T10:16:05.635Z,3.15
2022-09-15T10:18:39.738Z,3.90
2022-09-15T10:33:47.926Z,3.15
2022-09-15T10:36:40.054Z,3.70
2022-09-15T10:39:26.486Z,3.58
2022-09-15T11:16:02.907Z,3.58
2022-09-15T11:22:04.597Z,3.20
2022-09-15T11:24:56.230Z,3.70
2022-09-15T11:57:07.167Z,2.90
2022-09-15T11:59:45.050Z,2.80
2022-09-15T12:02:28.488Z,2.42
2022-09-15T12:08:37.714Z,2.40
2022-09-15T12:25:29.315Z,2.55
2022-09-15T12:47:24.433Z,2.30
2022-09-15T12:50:01.889Z,2.42
2022-09-15T12:52:35.925Z,2.10
2022-09-15T12:55:35.283Z,2.33
2022-09-15T12:58:48.983Z,2.30
2022-09-15T13:01:34.984Z,2.52
2022-09-15T13:04:24.800Z,2.65
2022-09-15T13:07:41.630Z,2.77
2022-09-15T13:10:20.494Z,6.58
2022-09-15T13:20:07.545Z,2.45
2022-09-15T13:22:48.315Z,3.40
2022-09-15T13:25:21.585Z,3.50
2022-09-15T13:31:00.853Z,2.87
2022-09-15T13:40:28.877Z,2.50
2022-09-15T13:43:40.863Z,1.82
2022-09-15T13:46:29.629Z,2.30
2022-09-15T13:49:13.965Z,2.25
2022-09-15T13:51:48.361Z,5.03
2022-09-15T13:54:20.576Z,2.72
2022-09-15T14:33:25.887Z,1.77
2022-09-15T14:39:57.951Z,2.22
2022-09-15T14:42:45.378Z,2.20
2022-09-15T14:48:31.043Z,2.25
2022-09-15T14:51:24.548Z,2.25
2022-09-15T14:54:09.711Z,2.37
2022-09-15T14:57:02.509Z,2.30
2022-09-15T15:03:35.568Z,2.50
2022-09-15T15:06:29.197Z,2.67
2022-09-15T15:09:14.015Z,1.85
2022-09-15T15:15:17.607Z,2.60
2022-09-15T15:18:09.120Z,2.60
2022-09-15T15:21:35.433Z,2.55
2022-09-15T15:23:32.593Z,2.77
2022-09-15T15:26:51.631Z,2.60
2022-09-15T15:37:23.081Z,3.25
2022-09-15T15:42:10.561Z,2.42
2022-09-15T15:51:00.216Z,2.65
2022-09-15T15:59:45.609Z,3.40
2022-09-15T16:08:18.017Z,4.60
2022-09-15T16:13:48.755Z,4.42
2022-09-15T16:16:20.905Z,4.05
2022-09-15T16:18:59.060Z,4.97
2022-09-15T16:30:52.377Z,4.25
2022-09-15T16:39:50.772Z,5.42
2022-09-15T16:42:27.099Z,4.78
2022-09-15T16:45:12.061Z,4.90
2022-09-15T16:48:04.083Z,4.85
2022-09-15T16:50:50.303Z,5.28
2022-09-15T16:53:20.157Z,6.33
2022-09-15T16:55:56.123Z,20.02
2022-09-15T16:58:24.547Z,9.43
2022-09-15T17:01:12.469Z,45.55
2022-09-15T17:04:09.633Z,18.48
2022-09-15T17:06:41.317Z,10.28
2022-09-15T17:09:10.856Z,11.28
2022-09-15T17:11:40.444Z,36.53
2022-09-15T17:14:41.367Z,36.15
2022-09-15T17:17:20.103Z,15.88
2022-09-15T17:19:40.549Z,14.07
2022-09-15T17:29:08.552Z,14.20
2022-09-15T17:38:34.947Z,16.90
2022-09-15T17:44:28.444Z,33.00
2022-09-15T17:47:04.493Z,14.38
2022-09-15T17:49:45.830Z,10.55
2022-09-15T17:52:30.203Z,15.35
2022-09-15T17:55:05.835Z,10.88
2022-09-15T17:57:40.679Z,10.88
2022-09-15T18:00:44.091Z,9.80
2022-09-15T18:07:01.445Z,11.08
2022-09-15T18:09:20.233Z,24.77
2022-09-15T18:12:01.351Z,9.95
2022-09-15T18:21:15.343Z,9.40
2022-09-15T18:31:09.843Z,9.13
2022-09-15T18:42:40.062Z,8.73
2022-09-15T18:50:17.392Z,7.55
2022-09-15T18:56:08.405Z,6.45
2022-09-15T18:58:47.154Z,7.85
2022-09-15T19:07:08.101Z,6.90
2022-09-15T19:09:43.137Z,6.22
2022-09-15T19:12:34.997Z,18.77
2022-09-15T19:15:12.213Z,8.18
2022-09-15T19:17:47.827Z,8.00
2022-09-15T19:20:26.351Z,6.05
2022-09-15T19:22:56.775Z,7.30
2022-09-15T19:25:25.810Z,6.50
2022-09-15T19:28:09.900Z,6.45
2022-09-15T20:09:56.736Z,7.58
2022-09-15T20:12:33.908Z,6.72
2022-09-15T20:15:42.419Z,13.28
2022-09-15T20:32:07.739Z,7.60
2022-09-15T20:34:44.839Z,8.23
2022-09-15T21:06:06.200Z,4.35
2022-09-15T21:08:35.677Z,3.80
2022-09-15T21:13:57.856Z,4.42
2022-09-15T21:16:37.770Z,4.10
2022-09-15T21:19:09.683Z,3.60
2022-09-15T21:21:39.750Z,3.65
2022-09-15T21:24:13.297Z,4.42
2022-09-15T21:27:01.710Z,4.20
2022-09-15T21:29:32.104Z,4.03
2022-09-15T21:32:06.935Z,3.95
2022-09-15T21:38:06.589Z,4.20
2022-09-15T21:47:49.152Z,3.75
2022-09-15T21:51:19.680Z,3.47
2022-09-15T21:53:44.279Z,3.87
2022-09-15T21:56:20.858Z,3.60
2022-09-15T21:58:51.691Z,8.98
2022-09-15T22:01:27.884Z,4.08
2022-09-15T22:04:13.812Z,4.55
2022-09-15T22:06:43.245Z,20.32
2022-09-15T22:09:17.120Z,3.55
2022-09-15T22:11:46.105Z,3.37
2022-09-15T22:14:18.874Z,3.40
2022-09-15T22:16:49.381Z,3.98
2022-09-15T22:21:01.518Z,3.35
2022-09-15T22:25:57.469Z,3.40
2022-09-15T22:28:28.405Z,3.20
2022-09-15T22:31:09.576Z,3.95
2022-09-15T22:33:42.740Z,3.92
2022-09-15T22:36:28.124Z,3.37
2022-09-15T22:38:57.931Z,3.33
2022-09-15T22:41:37.711Z,3.55
2022-09-15T22:44:33.714Z,3.85
2022-09-15T22:47:05.809Z,3.40
2022-09-15T22:49:49.397Z,4.00
2022-09-15T22:58:42.159Z,3.22
2022-09-15T23:01:31.775Z,4.42
2022-09-15T23:04:01.763Z,3.55
2022-09-15T23:06:37.458Z,3.62
2022-09-15T23:12:46.991Z,3.00
2022-09-15T23:15:17.940Z,3.17
2022-09-15T23:17:47.323Z,3.85
2022-09-15T23:20:15.973Z,3.17
2022-09-15T23:22:44.716Z,3.47
2022-09-15T23:25:13.398Z,3.10
2022-09-15T23:27:42.069Z,3.75
2022-09-15T23:30:11.913Z,2.98
2022-09-15T23:32:40.447Z,3.60
2022-09-15T23:35:09.937Z,3.30
2022-09-15T23:37:40.283Z,4.40
2022-09-15T23:40:11.020Z,4.67
2022-09-15T23:42:39.700Z,3.65
2022-09-15T23:45:08.904Z,3.10
2022-09-15T23:47:45.048Z,2.95
2022-09-15T23:50:32.915Z,3.77
2022-09-15T23:53:17.945Z,3.65
2022-09-15T23:56:08.137Z,3.70
2022-09-15T23:59:15.726Z,3.35
